Time;durP1;ratioP1;P1;durP2;ratioP2;P2;SDS_P1;SDS_P2;PMS_P1;PMS_P2;Temp;Humidity;BMP_temperature;BMP_pressure;BME280_temperature;BME280_humidity;BME280_pressure;Samples;Min_cycle;Max_cycle;Signal;HPM_P1;HPM_P2
2022/01/27 00:02:48;;;;;;;46.45;26.45;;;7.70;99.90;;;;;;5070986;28;20234;-64
2022/01/27 00:05:17;;;;;;;45.83;29.88;;;7.70;99.90;;;;;;5072973;28;20224;-64
2022/01/27 00:08:10;;;;;;;42.72;26.13;;;7.70;99.90;;;;;;5047855;28;21059;-64
2022/01/27 00:10:55;;;;;;;41.55;23.77;;;7.70;99.90;;;;;;5053864;28;20691;-64
2022/01/27 00:13:29;;;;;;;45.42;29.27;;;7.70;99.90;;;;;;5046979;28;20222;-64
2022/01/27 00:16:11;;;;;;;45.85;28.48;;;7.70;99.90;;;;;;5041645;28;20646;-63
2022/01/27 00:18:37;;;;;;;41.72;26.65;;;7.70;99.90;;;;;;5040961;28;20701;-63
2022/01/27 00:21:04;;;;;;;41.72;24.20;;;7.60;99.90;;;;;;5044218;28;20830;-64
2022/01/27 00:23:31;;;;;;;39.05;25.25;;;7.60;99.90;;;;;;5051802;28;20683;-64
2022/01/27 00:25:59;;;;;;;39.03;26.23;;;7.60;99.90;;;;;;5052698;28;20849;-64
2022/01/27 00:28:27;;;;;;;38.28;26.90;;;7.60;99.90;;;;;;5052168;28;20230;-64
2022/01/27 00:30:54;;;;;;;42.72;25.52;;;7.70;99.90;;;;;;5046562;28;20240;-64
2022/01/27 00:33:21;;;;;;;40.97;24.55;;;7.60;99.90;;;;;;5047185;28;20210;-64
2022/01/27 00:35:48;;;;;;;42.38;24.35;;;7.60;99.90;;;;;;5035741;28;20238;-64
2022/01/27 00:38:16;;;;;;;38.08;22.83;;;7.70;99.90;;;;;;5038512;28;20232;-64
2022/01/27 00:40:43;;;;;;;36.80;23.50;;;7.70;99.90;;;;;;5034474;28;20238;-64
2022/01/27 00:43:11;;;;;;;39.63;25.55;;;7.70;99.90;;;;;;5036050;28;20555;-64
2022/01/27 00:45:38;;;;;;;44.38;26.00;;;7.70;99.90;;;;;;5054766;28;20226;-64
2022/01/27 00:48:05;;;;;;;53.40;32.38;;;7.70;99.90;;;;;;5041431;28;20221;-64
2022/01/27 00:50:35;;;;;;;42.90;28.00;;;7.60;99.90;;;;;;5046938;28;20230;-64
2022/01/27 00:53:06;;;;;;;35.65;22.52;;;7.60;99.90;;;;;;5036017;28;21041;-64
2022/01/27 00:55:40;;;;;;;52.22;29.45;;;7.70;99.90;;;;;;5035293;28;20223;-64
2022/01/27 00:58:19;;;;;;;36.45;21.30;;;7.70;99.90;;;;;;5037955;28;20295;-64
2022/01/27 01:00:55;;;;;;;36.00;22.40;;;7.70;99.90;;;;;;5041699;28;20235;-64
2022/01/27 01:03:28;;;;;;;34.67;21.92;;;7.70;99.90;;;;;;5035052;28;20279;-64
2022/01/27 01:06:13;;;;;;;40.53;24.80;;;7.70;99.90;;;;;;5047762;28;20570;-64
2022/01/27 01:11:55;;;;;;;36.75;23.90;;;7.70;99.90;;;;;;5042102;28;20243;-64
2022/01/27 01:14:33;;;;;;;47.90;29.13;;;7.70;99.90;;;;;;5040851;28;20237;-64
2022/01/27 01:17:07;;;;;;;34.60;22.73;;;7.70;99.90;;;;;;5054513;28;20212;-64
2022/01/27 01:19:47;;;;;;;30.13;19.48;;;7.70;99.90;;;;;;5041975;28;20231;-64
2022/01/27 01:30:45;;;;;;;29.40;19.10;;;7.80;99.90;;;;;;5043839;28;20967;-64
2022/01/27 01:33:20;;;;;;;32.88;19.48;;;7.70;99.90;;;;;;5041275;28;20715;-64
2022/01/27 01:35:49;;;;;;;25.70;17.27;;;7.70;99.90;;;;;;5046254;28;20226;-64
2022/01/27 01:38:18;;;;;;;34.50;23.67;;;7.80;99.90;;;;;;5043027;28;20688;-64
2022/01/27 01:40:45;;;;;;;30.80;19.00;;;7.80;99.90;;;;;;5033884;28;20239;-64
2022/01/27 01:43:12;;;;;;;32.33;20.30;;;7.80;99.90;;;;;;5036534;28;20249;-64
2022/01/27 01:45:39;;;;;;;29.10;19.70;;;7.90;99.90;;;;;;5053731;28;20229;-64
2022/01/27 01:48:08;;;;;;;28.80;17.60;;;7.80;99.90;;;;;;5040516;28;21084;-64
2022/01/27 01:50:36;;;;;;;34.45;20.20;;;7.80;99.90;;;;;;5043648;28;20231;-64
2022/01/27 01:53:04;;;;;;;31.25;20.05;;;7.80;99.90;;;;;;5050740;28;20225;-64
2022/01/27 01:55:31;;;;;;;73.90;38.80;;;7.80;99.90;;;;;;5042901;28;20225;-64
2022/01/27 01:57:59;;;;;;;43.05;27.33;;;7.80;99.90;;;;;;5038022;28;20560;-64
2022/01/27 02:00:27;;;;;;;28.08;18.65;;;7.80;99.90;;;;;;5043917;28;20246;-64
2022/01/27 02:02:54;;;;;;;23.58;16.30;;;7.80;99.90;;;;;;5047027;28;20222;-64
2022/01/27 02:05:21;;;;;;;25.73;17.52;;;7.80;99.90;;;;;;5038673;28;20249;-64
2022/01/27 02:08:16;;;;;;;47.58;27.95;;;7.80;99.90;;;;;;5036712;28;20230;-64
2022/01/27 02:19:05;;;;;;;21.05;15.82;;;7.80;99.90;;;;;;5029444;28;20299;-64
2022/01/27 02:21:33;;;;;;;26.17;16.20;;;7.80;99.90;;;;;;5072627;28;20989;-64
2022/01/27 02:24:00;;;;;;;21.85;15.55;;;7.80;99.90;;;;;;5067492;28;20209;-64
2022/01/27 02:26:27;;;;;;;20.58;15.75;;;7.90;99.90;;;;;;5071826;28;20250;-64
2022/01/27 02:28:53;;;;;;;25.45;16.92;;;7.80;99.90;;;;;;5073021;28;20225;-64
2022/01/27 02:31:20;;;;;;;27.40;18.92;;;7.80;99.90;;;;;;5072548;28;20711;-64
2022/01/27 02:33:56;;;;;;;50.35;31.08;;;7.80;99.90;;;;;;5072966;28;20232;-64
2022/01/27 02:36:24;;;;;;;26.52;19.40;;;7.70;99.90;;;;;;5072785;28;20674;-64
2022/01/27 02:38:52;;;;;;;25.08;17.50;;;7.70;99.90;;;;;;5072765;28;20226;-64
2022/01/27 02:41:23;;;;;;;20.05;16.23;;;7.70;99.90;;;;;;5072558;28;20237;-63
2022/01/27 02:43:50;;;;;;;34.92;24.27;;;7.80;99.90;;;;;;5060453;28;20221;-64
2022/01/27 02:46:21;;;;;;;30.23;21.95;;;7.80;99.90;;;;;;5072122;28;20682;-64
2022/01/27 02:48:48;;;;;;;30.02;23.30;;;7.70;99.90;;;;;;5072561;28;20235;-64
2022/01/27 02:51:15;;;;;;;22.05;15.25;;;7.80;99.90;;;;;;5072413;28;20226;-64
2022/01/27 02:53:41;;;;;;;25.60;17.08;;;7.80;99.90;;;;;;5072150;28;20221;-64
2022/01/27 02:56:09;;;;;;;19.23;14.68;;;7.80;99.90;;;;;;5071832;28;20244;-63
2022/01/27 02:58:36;;;;;;;24.95;18.27;;;7.80;99.90;;;;;;5060611;28;20793;-64
2022/01/27 03:01:04;;;;;;;23.35;15.23;;;7.80;99.90;;;;;;5057846;28;20232;-64
2022/01/27 03:03:31;;;;;;;21.48;14.82;;;7.90;99.90;;;;;;5051931;28;20226;-64
2022/01/27 03:05:58;;;;;;;21.73;14.52;;;8.00;99.90;;;;;;5052551;28;20218;-64
2022/01/27 03:08:25;;;;;;;51.95;33.75;;;8.00;99.90;;;;;;5051943;28;20682;-64
2022/01/27 03:11:00;;;;;;;49.35;29.70;;;7.90;99.90;;;;;;5044124;28;20225;-63
2022/01/27 03:13:30;;;;;;;25.75;18.60;;;7.90;99.90;;;;;;5043915;28;20226;-64
2022/01/27 03:15:57;;;;;;;23.00;15.85;;;7.80;99.90;;;;;;5055792;28;20734;-64
2022/01/27 03:18:24;;;;;;;18.25;13.48;;;7.80;99.90;;;;;;5043567;28;20237;-63
2022/01/27 03:20:51;;;;;;;23.25;17.27;;;7.80;99.90;;;;;;5049696;28;20227;-63
2022/01/27 03:23:18;;;;;;;24.23;17.20;;;7.90;99.90;;;;;;5040960;28;20222;-63
2022/01/27 03:25:47;;;;;;;25.85;17.92;;;7.90;99.90;;;;;;5042376;28;20223;-63
2022/01/27 03:28:14;;;;;;;20.50;15.85;;;7.90;99.90;;;;;;5044187;28;20229;-63
2022/01/27 03:30:43;;;;;;;22.63;17.02;;;7.90;99.90;;;;;;5043066;28;20541;-64
2022/01/27 03:33:09;;;;;;;22.98;18.08;;;7.90;99.90;;;;;;5040018;28;20227;-64
2022/01/27 03:35:36;;;;;;;28.77;19.02;;;7.90;99.90;;;;;;5044746;28;20222;-63
2022/01/27 03:38:06;;;;;;;20.50;15.30;;;7.90;99.90;;;;;;5040774;28;20223;-64
2022/01/27 03:40:33;;;;;;;19.90;15.93;;;7.90;99.90;;;;;;5038835;28;20254;-64
2022/01/27 03:43:05;;;;;;;26.15;17.20;;;7.90;99.90;;;;;;5038874;28;20222;-64
2022/01/27 03:45:36;;;;;;;29.02;20.38;;;8.00;99.90;;;;;;5051707;28;20243;-64
2022/01/27 03:48:05;;;;;;;20.23;15.23;;;7.90;99.90;;;;;;5048716;28;20571;-64
2022/01/27 03:50:32;;;;;;;39.97;27.50;;;8.00;99.90;;;;;;5037133;28;20549;-64
2022/01/27 03:52:59;;;;;;;44.00;28.92;;;8.00;99.90;;;;;;5038760;28;20226;-64
2022/01/27 03:55:26;;;;;;;28.63;19.17;;;7.90;99.90;;;;;;5042398;28;20220;-63
2022/01/27 03:57:52;;;;;;;29.70;20.33;;;7.90;99.90;;;;;;5041764;28;20237;-64
2022/01/27 04:00:20;;;;;;;20.90;14.40;;;7.90;99.90;;;;;;5042957;28;20234;-64
2022/01/27 04:02:59;;;;;;;18.05;14.07;;;7.90;99.90;;;;;;5034338;28;20227;-63
2022/01/27 04:05:33;;;;;;;23.63;18.35;;;8.00;99.90;;;;;;5040947;28;20584;-63
2022/01/27 04:08:00;;;;;;;23.95;18.42;;;8.00;99.90;;;;;;5045300;28;20673;-63
2022/01/27 04:10:27;;;;;;;21.75;18.20;;;8.00;99.90;;;;;;5034545;28;20238;-64
2022/01/27 04:12:54;;;;;;;19.70;14.82;;;8.00;99.90;;;;;;5045320;28;20732;-64
2022/01/27 04:15:21;;;;;;;21.80;16.95;;;8.00;99.90;;;;;;5031636;28;20237;-64
2022/01/27 04:17:48;;;;;;;29.58;21.00;;;8.00;99.90;;;;;;5041049;28;20557;-64
2022/01/27 04:20:15;;;;;;;29.90;21.90;;;8.00;99.90;;;;;;5039386;28;20243;-64
2022/01/27 04:22:43;;;;;;;23.70;18.73;;;8.00;99.90;;;;;;5048380;28;20234;-64
2022/01/27 04:25:12;;;;;;;20.25;15.73;;;8.00;99.90;;;;;;5045272;28;20561;-64
2022/01/27 04:27:42;;;;;;;21.02;18.05;;;8.10;99.90;;;;;;5046899;28;20223;-64
2022/01/27 04:30:15;;;;;;;21.38;17.60;;;8.00;99.90;;;;;;5045572;28;20689;-63
2022/01/27 04:32:46;;;;;;;17.00;14.60;;;8.00;99.90;;;;;;5046075;28;20237;-63
2022/01/27 04:35:17;;;;;;;17.98;13.77;;;8.00;99.90;;;;;;5049398;28;20227;-63
2022/01/27 04:37:57;;;;;;;23.20;16.80;;;8.10;99.90;;;;;;5061671;28;20217;-64
2022/01/27 04:40:31;;;;;;;18.98;12.90;;;8.10;99.90;;;;;;5071352;28;20700;-64
2022/01/27 04:43:03;;;;;;;16.98;13.25;;;8.20;99.90;;;;;;5071767;28;20315;-64
2022/01/27 04:45:37;;;;;;;14.13;11.50;;;8.20;99.90;;;;;;5061177;28;20218;-63
2022/01/27 04:48:11;;;;;;;20.73;15.88;;;8.20;99.90;;;;;;5073081;28;20230;-63
2022/01/27 04:50:38;;;;;;;18.30;14.95;;;8.20;99.90;;;;;;5074811;28;20237;-64
2022/01/27 04:53:10;;;;;;;19.75;14.35;;;8.20;99.90;;;;;;5074955;28;20222;-64
2022/01/27 04:55:37;;;;;;;14.80;11.05;;;8.20;99.90;;;;;;5074599;28;20234;-64
2022/01/27 04:58:12;;;;;;;16.35;12.25;;;8.30;99.90;;;;;;5070658;28;20225;-64
2022/01/27 05:00:39;;;;;;;18.15;13.13;;;8.30;99.90;;;;;;5063226;28;20613;-63
2022/01/27 05:03:16;;;;;;;18.92;14.60;;;8.30;99.90;;;;;;5063428;28;20283;-64
2022/01/27 05:05:43;;;;;;;30.92;20.75;;;8.30;99.90;;;;;;5061546;28;20309;-64
2022/01/27 05:08:17;;;;;;;15.07;11.75;;;8.30;99.90;;;;;;5061314;28;20241;-64
2022/01/27 05:10:54;;;;;;;16.15;12.23;;;8.30;99.90;;;;;;5044120;28;20229;-64
2022/01/27 05:13:23;;;;;;;14.05;12.45;;;8.20;99.90;;;;;;5053224;28;20321;-63
2022/01/27 05:15:50;;;;;;;21.33;14.80;;;8.20;99.90;;;;;;5051297;28;20247;-64
2022/01/27 05:18:17;;;;;;;19.02;14.02;;;8.20;99.90;;;;;;5044604;28;20309;-63
2022/01/27 05:20:44;;;;;;;13.88;11.07;;;8.10;99.90;;;;;;5037408;28;20228;-64
2022/01/27 05:23:12;;;;;;;15.32;12.25;;;8.10;99.90;;;;;;5054749;28;20225;-63
2022/01/27 05:25:39;;;;;;;13.73;11.68;;;8.10;99.90;;;;;;5040764;28;20225;-64
2022/01/27 05:28:07;;;;;;;27.27;17.52;;;8.10;99.90;;;;;;5043463;28;20237;-63
2022/01/27 05:30:34;;;;;;;17.10;14.07;;;8.10;99.90;;;;;;5038667;28;20231;-64
2022/01/27 05:33:01;;;;;;;20.65;16.55;;;8.00;99.90;;;;;;5041343;28;20227;-64
2022/01/27 05:35:31;;;;;;;28.83;21.63;;;8.10;99.90;;;;;;5046538;28;20289;-63
2022/01/27 05:37:58;;;;;;;13.27;11.63;;;8.10;99.90;;;;;;5040494;28;20223;-63
2022/01/27 05:40:26;;;;;;;16.42;12.88;;;8.10;99.90;;;;;;5047700;28;20688;-64
2022/01/27 05:42:53;;;;;;;22.27;17.77;;;8.10;99.90;;;;;;5046805;28;20249;-64
2022/01/27 05:45:20;;;;;;;13.80;11.68;;;8.10;99.90;;;;;;5043101;28;20701;-64
2022/01/27 05:47:47;;;;;;;15.48;12.38;;;8.20;99.90;;;;;;5040829;28;20235;-64
2022/01/27 05:50:15;;;;;;;15.23;12.75;;;8.20;99.90;;;;;;5047420;28;20232;-64
2022/01/27 05:52:41;;;;;;;14.35;12.73;;;8.20;99.90;;;;;;5045540;28;20230;-63
2022/01/27 05:55:09;;;;;;;13.88;12.40;;;8.10;99.90;;;;;;5040359;28;20228;-64
2022/01/27 05:57:41;;;;;;;12.80;11.48;;;8.20;99.90;;;;;;5048564;28;20227;-63
2022/01/27 06:00:10;;;;;;;15.50;11.60;;;8.20;99.90;;;;;;5040967;28;20249;-64
2022/01/27 06:02:37;;;;;;;23.77;15.05;;;8.20;99.90;;;;;;5049350;28;20621;-64
2022/01/27 06:05:04;;;;;;;20.20;16.38;;;8.20;99.90;;;;;;5045918;28;20223;-64
2022/01/27 06:07:31;;;;;;;20.58;15.07;;;8.20;99.90;;;;;;5046222;28;20222;-64
2022/01/27 06:09:59;;;;;;;16.98;14.18;;;8.20;99.90;;;;;;5035655;28;20228;-64
2022/01/27 06:12:26;;;;;;;22.50;17.08;;;8.10;99.90;;;;;;5046397;28;20231;-64
2022/01/27 06:14:54;;;;;;;16.63;14.70;;;8.20;99.90;;;;;;5034252;28;20222;-64
2022/01/27 06:17:21;;;;;;;18.20;12.43;;;8.10;99.90;;;;;;5044786;28;20245;-64
2022/01/27 06:19:48;;;;;;;17.92;14.95;;;8.00;99.90;;;;;;5043776;28;20679;-64
2022/01/27 06:22:16;;;;;;;20.13;17.05;;;8.00;99.90;;;;;;5046556;28;20218;-63
2022/01/27 06:24:44;;;;;;;28.75;20.20;;;8.00;99.90;;;;;;5042171;28;20238;-63
2022/01/27 06:27:12;;;;;;;18.33;16.30;;;8.00;99.90;;;;;;5039970;28;20223;-63
2022/01/27 06:29:39;;;;;;;14.75;13.20;;;8.00;99.90;;;;;;5043370;28;20241;-63
2022/01/27 06:32:09;;;;;;;16.30;13.70;;;8.00;99.90;;;;;;5046564;28;20228;-64
2022/01/27 06:34:35;;;;;;;17.35;15.32;;;8.00;99.90;;;;;;5040451;28;20232;-64
2022/01/27 06:37:02;;;;;;;20.02;15.93;;;8.00;99.90;;;;;;5046306;28;20223;-64
2022/01/27 06:39:29;;;;;;;19.98;14.60;;;8.00;99.90;;;;;;5043323;28;20340;-64
2022/01/27 06:41:56;;;;;;;19.00;15.43;;;8.00;99.90;;;;;;5039197;28;20230;-64
2022/01/27 06:44:23;;;;;;;20.00;15.77;;;8.10;99.90;;;;;;5043321;28;20214;-64
2022/01/27 06:46:50;;;;;;;18.45;14.50;;;8.10;99.90;;;;;;5049148;28;20245;-64
2022/01/27 06:49:18;;;;;;;17.70;14.27;;;8.10;99.90;;;;;;5050036;28;20230;-64
2022/01/27 06:51:45;;;;;;;19.95;16.17;;;8.10;99.90;;;;;;5038996;28;20583;-64
2022/01/27 06:54:12;;;;;;;20.85;17.63;;;8.10;99.90;;;;;;5050250;28;20253;-64
2022/01/27 06:56:39;;;;;;;18.98;15.93;;;8.00;99.90;;;;;;5034561;28;20236;-64
2022/01/27 06:59:06;;;;;;;24.33;18.83;;;8.00;99.90;;;;;;5046348;28;20579;-63
2022/01/27 07:01:33;;;;;;;18.52;15.13;;;8.00;99.90;;;;;;5041659;28;20234;-64
2022/01/27 07:04:01;;;;;;;21.08;16.77;;;8.00;99.90;;;;;;5049988;28;20959;-64
2022/01/27 07:06:30;;;;;;;19.77;16.95;;;8.10;99.90;;;;;;5042401;28;20226;-64
2022/01/27 07:08:57;;;;;;;22.73;20.15;;;8.10;99.90;;;;;;5038900;28;20221;-63
2022/01/27 07:11:23;;;;;;;23.70;17.63;;;8.10;99.90;;;;;;5042143;28;20695;-63
2022/01/27 07:13:50;;;;;;;22.63;18.95;;;8.00;99.90;;;;;;5043708;28;20240;-64
2022/01/27 07:16:17;;;;;;;25.05;19.40;;;7.90;99.90;;;;;;5043056;28;20221;-64
2022/01/27 07:18:44;;;;;;;33.42;23.95;;;7.90;99.90;;;;;;5045716;28;20233;-64
2022/01/27 07:21:11;;;;;;;32.00;21.23;;;7.90;99.90;;;;;;5042708;28;20661;-64
2022/01/27 07:23:39;;;;;;;26.75;20.75;;;8.00;99.90;;;;;;5038856;28;20231;-64
2022/01/27 07:26:07;;;;;;;24.27;19.98;;;8.10;99.90;;;;;;5042408;28;20220;-64
2022/01/27 07:28:34;;;;;;;28.63;19.90;;;8.00;99.90;;;;;;5045832;28;20279;-64
2022/01/27 07:31:02;;;;;;;28.25;20.92;;;8.10;99.90;;;;;;5042825;28;20570;-63
2022/01/27 07:33:29;;;;;;;28.50;21.67;;;8.10;99.90;;;;;;5039212;28;20689;-64
2022/01/27 07:35:56;;;;;;;33.88;24.88;;;8.10;99.90;;;;;;5040867;28;20227;-64
2022/01/27 07:38:23;;;;;;;31.20;21.98;;;8.00;99.90;;;;;;5045228;28;20680;-63
2022/01/27 07:40:51;;;;;;;35.22;25.65;;;8.00;99.90;;;;;;5040618;28;20280;-64
2022/01/27 07:43:18;;;;;;;36.25;24.90;;;8.00;99.90;;;;;;5045701;28;20223;-64
2022/01/27 07:45:45;;;;;;;33.55;23.30;;;8.00;99.90;;;;;;5043853;28;20241;-64
2022/01/27 07:48:12;;;;;;;36.80;24.63;;;8.10;99.90;;;;;;5046782;28;20262;-64
2022/01/27 07:50:39;;;;;;;35.25;25.58;;;8.00;99.90;;;;;;5044430;28;20234;-64
2022/01/27 07:53:06;;;;;;;33.00;24.38;;;8.00;99.90;;;;;;5038809;28;20223;-64
2022/01/27 07:55:32;;;;;;;40.05;26.80;;;8.10;99.90;;;;;;5046718;28;20229;-64
2022/01/27 07:58:01;;;;;;;35.30;25.80;;;8.00;99.90;;;;;;5038609;28;20241;-64
2022/01/27 08:00:27;;;;;;;39.85;27.95;;;8.00;99.90;;;;;;5038457;28;20228;-64
2022/01/27 08:02:54;;;;;;;31.85;25.23;;;8.00;99.90;;;;;;5050250;28;20226;-64
2022/01/27 08:05:22;;;;;;;41.92;29.45;;;7.90;99.90;;;;;;5039036;28;20286;-64
2022/01/27 08:07:48;;;;;;;40.80;29.98;;;7.90;99.90;;;;;;5051635;28;20292;-64
2022/01/27 08:10:15;;;;;;;35.95;25.42;;;8.00;99.90;;;;;;5051784;28;20245;-64
2022/01/27 08:12:42;;;;;;;35.17;27.08;;;8.00;99.90;;;;;;5051374;28;20795;-64
2022/01/27 08:15:13;;;;;;;38.97;27.38;;;8.00;99.90;;;;;;5047763;28;20230;-64
2022/01/27 08:17:41;;;;;;;36.60;27.70;;;8.00;99.90;;;;;;5052082;28;20258;-64
2022/01/27 08:20:09;;;;;;;34.33;27.20;;;8.00;99.90;;;;;;5051803;28;20691;-64
2022/01/27 08:22:38;;;;;;;33.90;24.98;;;8.00;99.90;;;;;;5055983;28;20237;-64
2022/01/27 08:25:05;;;;;;;42.58;28.17;;;8.00;99.90;;;;;;5057834;28;20245;-64
2022/01/27 08:27:33;;;;;;;35.45;25.52;;;8.00;99.90;;;;;;5054167;28;20230;-64
2022/01/27 08:30:03;;;;;;;34.97;25.48;;;8.00;99.90;;;;;;5051489;28;20318;-64
2022/01/27 08:32:45;;;;;;;31.05;22.73;;;8.10;99.90;;;;;;5055814;28;20242;-64
2022/01/27 08:35:12;;;;;;;32.88;24.60;;;8.10;99.90;;;;;;5055326;28;20225;-64
2022/01/27 08:37:39;;;;;;;32.90;25.55;;;8.00;99.90;;;;;;5051765;28;20219;-64
2022/01/27 08:40:07;;;;;;;44.13;25.88;;;8.10;99.90;;;;;;5053965;28;20571;-64
2022/01/27 08:42:34;;;;;;;35.05;26.35;;;8.10;99.90;;;;;;5055635;28;20234;-64
2022/01/27 08:45:01;;;;;;;35.60;26.02;;;8.00;99.90;;;;;;5050971;28;20219;-64
2022/01/27 08:47:27;;;;;;;34.30;24.95;;;8.00;99.90;;;;;;5054447;28;20221;-64
2022/01/27 08:49:56;;;;;;;36.35;25.88;;;8.10;99.90;;;;;;5048934;28;20245;-63
2022/01/27 08:52:22;;;;;;;38.78;26.70;;;8.10;99.90;;;;;;5048503;28;20221;-63
2022/01/27 08:54:49;;;;;;;38.75;27.75;;;8.00;99.90;;;;;;5047367;28;20251;-64
2022/01/27 08:57:16;;;;;;;35.08;24.08;;;8.00;99.90;;;;;;5042481;28;20685;-64
2022/01/27 08:59:43;;;;;;;40.28;26.42;;;8.00;99.90;;;;;;5047777;28;20234;-64
2022/01/27 09:02:10;;;;;;;32.35;24.58;;;8.00;99.90;;;;;;5048699;28;20227;-65
2022/01/27 09:04:37;;;;;;;33.33;25.02;;;8.00;99.90;;;;;;5047967;28;20242;-63
2022/01/27 09:07:05;;;;;;;36.13;24.55;;;7.90;99.90;;;;;;5047850;28;20226;-64
2022/01/27 09:09:32;;;;;;;37.20;23.90;;;7.90;99.90;;;;;;5051797;28;20585;-64
2022/01/27 09:12:00;;;;;;;35.13;25.67;;;8.00;99.90;;;;;;5053798;28;20242;-64
2022/01/27 09:14:29;;;;;;;37.05;24.45;;;8.00;99.90;;;;;;5054242;28;20561;-64
2022/01/27 09:16:56;;;;;;;42.15;30.90;;;8.00;99.90;;;;;;5054293;28;20321;-64
2022/01/27 09:19:25;;;;;;;45.97;30.92;;;7.90;99.90;;;;;;5035301;28;20227;-63
2022/01/27 09:21:53;;;;;;;32.08;22.20;;;7.90;99.90;;;;;;5041293;28;20298;-63
2022/01/27 09:24:27;;;;;;;34.72;23.90;;;7.90;99.90;;;;;;5054877;28;20223;-63
2022/01/27 09:27:01;;;;;;;32.40;22.75;;;7.90;99.90;;;;;;5037421;28;20306;-64
2022/01/27 09:29:28;;;;;;;31.45;23.83;;;7.90;99.90;;;;;;5034872;28;20238;-64
2022/01/27 09:31:56;;;;;;;32.78;24.02;;;7.90;99.90;;;;;;5034426;28;20230;-64
2022/01/27 09:34:23;;;;;;;36.53;22.70;;;7.90;99.90;;;;;;5033922;28;20234;-64
2022/01/27 09:36:50;;;;;;;29.90;20.85;;;7.90;99.90;;;;;;5034861;28;20235;-64
2022/01/27 09:39:19;;;;;;;32.65;22.00;;;8.00;99.90;;;;;;5071475;28;20225;-64
2022/01/27 09:41:49;;;;;;;46.42;28.83;;;7.90;99.90;;;;;;5074526;28;20250;-65
2022/01/27 09:44:17;;;;;;;33.95;22.20;;;7.90;99.90;;;;;;5074342;28;20231;-64
2022/01/27 09:46:46;;;;;;;31.40;22.02;;;7.90;99.90;;;;;;5074503;28;20230;-64
2022/01/27 09:49:16;;;;;;;33.33;23.55;;;7.90;99.90;;;;;;5073926;28;20225;-64
2022/01/27 09:51:46;;;;;;;29.48;20.20;;;7.90;99.90;;;;;;5074278;28;20244;-64
2022/01/27 09:54:16;;;;;;;34.25;23.00;;;7.80;99.90;;;;;;5071118;28;20220;-64
2022/01/27 09:56:43;;;;;;;28.08;21.00;;;7.90;99.90;;;;;;5054293;28;20238;-64
2022/01/27 09:59:11;;;;;;;43.35;26.55;;;7.90;99.90;;;;;;5037057;28;20702;-64
2022/01/27 10:01:39;;;;;;;26.50;20.75;;;8.00;99.90;;;;;;5034290;28;20581;-64
2022/01/27 10:04:07;;;;;;;32.92;22.52;;;7.90;99.90;;;;;;5048650;28;20714;-64
2022/01/27 10:06:37;;;;;;;29.30;21.40;;;7.90;99.90;;;;;;5054192;28;20222;-64
2022/01/27 10:09:19;;;;;;;29.40;21.63;;;7.80;99.90;;;;;;5053512;28;20330;-64
2022/01/27 10:11:47;;;;;;;31.10;20.98;;;7.90;99.90;;;;;;5053674;28;20281;-64
2022/01/27 10:14:24;;;;;;;23.70;17.85;;;7.90;99.90;;;;;;5053478;28;20571;-65
2022/01/27 10:16:54;;;;;;;24.10;17.30;;;8.00;99.90;;;;;;5054035;28;20303;-64
2022/01/27 10:19:21;;;;;;;23.73;16.50;;;8.00;99.90;;;;;;5053573;28;20350;-64
2022/01/27 10:21:48;;;;;;;23.70;17.98;;;8.00;99.90;;;;;;5053662;28;20598;-64
2022/01/27 10:24:20;;;;;;;22.95;17.50;;;8.00;99.90;;;;;;5053503;28;20621;-64
2022/01/27 10:26:53;;;;;;;24.70;16.63;;;8.00;99.90;;;;;;5053708;28;20251;-64
2022/01/27 10:29:36;;;;;;;24.08;16.95;;;7.90;99.90;;;;;;5053146;28;20230;-64
2022/01/27 10:32:06;;;;;;;27.30;17.95;;;7.90;99.90;;;;;;5053071;28;20276;-64
2022/01/27 10:34:56;;;;;;;28.20;19.70;;;7.90;99.90;;;;;;5053535;28;20227;-64
2022/01/27 10:37:23;;;;;;;22.40;18.45;;;7.90;99.90;;;;;;5051600;28;20909;-64
2022/01/27 10:39:50;;;;;;;26.73;18.83;;;7.90;99.90;;;;;;5033548;28;20572;-64
2022/01/27 10:42:21;;;;;;;26.80;20.30;;;7.90;99.90;;;;;;5033055;28;20227;-64
2022/01/27 10:44:55;;;;;;;27.83;20.08;;;7.90;99.90;;;;;;5033555;28;20680;-64
2022/01/27 10:47:28;;;;;;;29.95;20.25;;;7.90;99.90;;;;;;5033144;28;20234;-64
2022/01/27 10:49:58;;;;;;;25.23;18.50;;;7.90;99.90;;;;;;5033004;28;20677;-64
2022/01/27 10:52:34;;;;;;;25.23;18.00;;;8.00;99.90;;;;;;5032961;28;20244;-64
2022/01/27 10:55:07;;;;;;;33.60;21.02;;;7.90;99.90;;;;;;5032922;28;20690;-64
2022/01/27 10:57:34;;;;;;;28.13;20.88;;;7.90;99.90;;;;;;5033173;28;20236;-64
2022/01/27 11:00:09;;;;;;;33.97;21.98;;;7.90;99.90;;;;;;5033153;28;20222;-64
2022/01/27 11:02:49;;;;;;;32.45;20.95;;;7.80;99.90;;;;;;5032813;28;20214;-64
2022/01/27 11:05:19;;;;;;;27.30;18.38;;;7.90;99.90;;;;;;5032620;28;20227;-64
2022/01/27 11:07:47;;;;;;;25.58;19.83;;;7.90;99.90;;;;;;5040341;28;20220;-64
2022/01/27 11:10:15;;;;;;;28.85;20.45;;;7.80;99.90;;;;;;5052493;28;20230;-64
2022/01/27 11:12:44;;;;;;;29.90;20.77;;;7.90;99.90;;;;;;5052399;28;20291;-63
2022/01/27 11:15:16;;;;;;;27.00;20.23;;;7.90;99.90;;;;;;5052248;28;20554;-63
2022/01/27 11:17:44;;;;;;;29.95;21.15;;;7.80;99.90;;;;;;5052529;28;20222;-63
2022/01/27 11:20:27;;;;;;;27.15;19.50;;;7.80;99.90;;;;;;5052488;28;20284;-63
2022/01/27 11:25:53;;;;;;;34.95;22.52;;;7.90;99.90;;;;;;5048570;28;20297;-63
2022/01/27 11:28:36;;;;;;;32.65;23.73;;;7.90;99.90;;;;;;5052202;28;21091;-63
2022/01/27 11:31:17;;;;;;;32.05;20.25;;;7.90;99.90;;;;;;5052135;28;20370;-63
2022/01/27 11:33:58;;;;;;;25.25;18.90;;;8.00;99.90;;;;;;5052434;28;20573;-63
2022/01/27 11:36:25;;;;;;;28.17;19.45;;;8.00;99.90;;;;;;5052539;28;20658;-63
2022/01/27 11:38:52;;;;;;;22.10;17.05;;;7.90;99.90;;;;;;5038805;28;20227;-63
2022/01/27 11:41:39;;;;;;;28.45;19.10;;;8.00;99.90;;;;;;5032076;28;20234;-63
2022/01/27 11:44:28;;;;;;;27.98;18.05;;;8.00;99.90;;;;;;5032069;28;20228;-63
2022/01/27 11:47:22;;;;;;;34.80;20.83;;;7.90;99.90;;;;;;5032518;28;20227;-63
2022/01/27 11:49:56;;;;;;;28.80;19.35;;;7.90;99.90;;;;;;5032294;28;20223;-63
2022/01/27 11:52:26;;;;;;;28.23;19.45;;;7.90;99.90;;;;;;5032381;28;20276;-63
2022/01/27 11:54:53;;;;;;;24.30;16.98;;;7.90;99.90;;;;;;5032136;28;20237;-63
2022/01/27 11:57:43;;;;;;;30.98;20.65;;;7.90;99.90;;;;;;5034531;28;20677;-63
2022/01/27 12:00:13;;;;;;;27.92;17.83;;;7.90;99.90;;;;;;5036145;28;20302;-63
2022/01/27 12:03:09;;;;;;;24.25;18.23;;;8.00;99.90;;;;;;5036446;28;20226;-63
2022/01/27 12:05:38;;;;;;;21.50;16.55;;;8.00;99.90;;;;;;5036329;28;20246;-63
2022/01/27 12:08:22;;;;;;;19.45;15.85;;;8.00;99.90;;;;;;5053117;28;20572;-63
2022/01/27 12:10:53;;;;;;;23.90;16.67;;;8.00;99.90;;;;;;5049662;28;20310;-63
2022/01/27 12:14:00;;;;;;;27.25;19.17;;;8.10;99.90;;;;;;5035771;28;20235;-63
2022/01/27 12:16:40;;;;;;;25.30;18.20;;;8.00;99.90;;;;;;5043558;28;20295;-63
2022/01/27 12:19:11;;;;;;;22.08;16.58;;;8.00;99.90;;;;;;5045196;28;20572;-63
2022/01/27 12:21:40;;;;;;;25.25;16.98;;;8.10;99.90;;;;;;5044100;28;20235;-63
2022/01/27 12:24:23;;;;;;;22.35;15.45;;;8.10;99.90;;;;;;5043953;28;20243;-64
2022/01/27 12:26:52;;;;;;;22.65;16.92;;;8.00;99.90;;;;;;5043710;28;20238;-63
2022/01/27 12:29:24;;;;;;;23.42;15.75;;;8.10;99.90;;;;;;5043824;28;20235;-63
2022/01/27 12:31:52;;;;;;;20.98;15.35;;;8.10;99.90;;;;;;5044064;28;20243;-63
2022/01/27 12:34:20;;;;;;;28.17;18.95;;;8.10;99.90;;;;;;5043962;28;20581;-63
2022/01/27 12:36:59;;;;;;;28.33;17.50;;;8.10;99.90;;;;;;5056887;28;20254;-64
2022/01/27 12:39:27;;;;;;;20.55;14.52;;;8.10;99.90;;;;;;5049692;28;20233;-63
2022/01/27 12:41:55;;;;;;;20.95;14.35;;;8.10;99.90;;;;;;5050643;28;20252;-64
2022/01/27 12:44:22;;;;;;;20.40;15.48;;;8.20;99.90;;;;;;5050153;28;20236;-63
2022/01/27 12:47:07;;;;;;;19.05;14.63;;;8.20;99.90;;;;;;5055886;28;20237;-63
2022/01/27 12:49:42;;;;;;;24.58;16.60;;;8.20;99.90;;;;;;5045986;28;20239;-63
2022/01/27 12:52:11;;;;;;;16.80;13.80;;;8.30;99.90;;;;;;5044003;28;20239;-63
2022/01/27 12:54:39;;;;;;;21.75;14.65;;;8.40;99.90;;;;;;5043816;28;20239;-64
2022/01/27 12:57:07;;;;;;;21.67;17.05;;;8.30;99.90;;;;;;5044123;28;20231;-64
2022/01/27 12:59:36;;;;;;;20.98;14.65;;;8.40;99.90;;;;;;5043489;28;20235;-65
2022/01/27 13:02:06;;;;;;;21.27;15.05;;;8.40;99.90;;;;;;5043902;28;20223;-64
2022/01/27 13:04:34;;;;;;;19.38;15.32;;;8.40;99.90;;;;;;5043364;28;20243;-64
2022/01/27 13:07:03;;;;;;;16.52;11.95;;;8.50;99.90;;;;;;5043730;28;20741;-64
2022/01/27 13:09:32;;;;;;;17.60;13.10;;;8.50;99.90;;;;;;5047031;28;20566;-64
2022/01/27 13:12:10;;;;;;;22.17;13.75;;;8.50;99.90;;;;;;5054817;28;20284;-64
2022/01/27 13:14:52;;;;;;;17.73;14.27;;;8.50;99.90;;;;;;5054772;28;20223;-64